sensor_id;sensor_type;location;lat;lon;timestamp;pressure;altitude;pressure_sealevel;temperature;humidity
8075;BME280;4080;42.676;23.372;2022-08-19T00:01:25;94870.28;;;25.36;97.12
8075;BME280;4080;42.676;23.372;2022-08-19T00:03:52;94881.59;;;25.15;98.98
8075;BME280;4080;42.676;23.372;2022-08-19T00:06:19;94879.78;;;24.77;100.00
8075;BME280;4080;42.676;23.372;2022-08-19T00:08:46;94889.75;;;24.73;100.00
8075;BME280;4080;42.676;23.372;2022-08-19T00:11:13;94892.69;;;24.87;100.00
8075;BME280;4080;42.676;23.372;2022-08-19T00:13:41;94895.22;;;24.99;100.00
8075;BME280;4080;42.676;23.372;2022-08-19T00:16:08;94881.09;;;25.10;100.00
8075;BME280;4080;42.676;23.372;2022-08-19T00:18:34;94890.91;;;25.21;100.00
8075;BME280;4080;42.676;23.372;2022-08-19T00:21:01;94894.50;;;25.29;100.00
8075;BME280;4080;42.676;23.372;2022-08-19T00:23:35;94891.47;;;25.34;100.00
8075;BME280;4080;42.676;23.372;2022-08-19T00:26:02;94903.22;;;25.45;99.59
8075;BME280;4080;42.676;23.372;2022-08-19T00:28:29;94855.38;;;25.16;99.28
8075;BME280;4080;42.676;23.372;2022-08-19T00:30:58;94887.38;;;25.44;99.18
8075;BME280;4080;42.676;23.372;2022-08-19T00:33:24;94909.97;;;25.58;98.77
8075;BME280;4080;42.676;23.372;2022-08-19T00:35:51;94905.38;;;25.62;98.64
8075;BME280;4080;42.676;23.372;2022-08-19T00:38:18;94896.19;;;25.67;98.00
8075;BME280;4080;42.676;23.372;2022-08-19T00:40:48;94885.66;;;25.58;97.93
8075;BME280;4080;42.676;23.372;2022-08-19T00:43:19;94883.72;;;25.59;98.18
8075;BME280;4080;42.676;23.372;2022-08-19T00:45:46;94900.34;;;25.61;98.63
8075;BME280;4080;42.676;23.372;2022-08-19T00:48:14;94887.94;;;25.56;98.51
8075;BME280;4080;42.676;23.372;2022-08-19T00:50:42;94888.03;;;25.37;99.43
8075;BME280;4080;42.676;23.372;2022-08-19T00:53:10;94882.88;;;25.25;100.00
8075;BME280;4080;42.676;23.372;2022-08-19T00:55:42;94899.16;;;25.32;100.00
8075;BME280;4080;42.676;23.372;2022-08-19T00:58:16;94892.94;;;25.28;100.00
8075;BME280;4080;42.676;23.372;2022-08-19T01:00:44;94883.09;;;25.13;100.00
8075;BME280;4080;42.676;23.372;2022-08-19T01:03:16;94898.31;;;25.01;100.00
8075;BME280;4080;42.676;23.372;2022-08-19T01:05:44;94896.78;;;25.00;100.00
8075;BME280;4080;42.676;23.372;2022-08-19T01:08:12;94896.78;;;25.00;100.00
8075;BME280;4080;42.676;23.372;2022-08-19T01:10:43;94894.16;;;25.07;100.00
8075;BME280;4080;42.676;23.372;2022-08-19T01:13:12;94895.03;;;25.12;100.00
8075;BME280;4080;42.676;23.372;2022-08-19T01:15:43;94894.66;;;25.13;100.00
8075;BME280;4080;42.676;23.372;2022-08-19T01:18:13;94891.25;;;25.16;100.00
8075;BME280;4080;42.676;23.372;2022-08-19T01:20:42;94887.41;;;25.17;100.00
8075;BME280;4080;42.676;23.372;2022-08-19T01:23:11;94882.00;;;25.17;100.00
8075;BME280;4080;42.676;23.372;2022-08-19T01:25:41;94887.13;;;25.26;100.00
8075;BME280;4080;42.676;23.372;2022-08-19T01:28:15;94886.63;;;25.17;100.00
8075;BME280;4080;42.676;23.372;2022-08-19T01:30:44;94874.28;;;25.16;100.00
8075;BME280;4080;42.676;23.372;2022-08-19T01:33:11;94892.44;;;25.19;100.00
8075;BME280;4080;42.676;23.372;2022-08-19T01:35:39;94889.31;;;25.17;100.00
8075;BME280;4080;42.676;23.372;2022-08-19T01:38:08;94882.25;;;24.63;100.00
8075;BME280;4080;42.676;23.372;2022-08-19T01:40:39;94887.88;;;24.31;100.00
8075;BME280;4080;42.676;23.372;2022-08-19T01:43:07;94868.69;;;24.17;100.00
8075;BME280;4080;42.676;23.372;2022-08-19T01:45:35;94885.69;;;23.98;100.00
8075;BME280;4080;42.676;23.372;2022-08-19T01:48:03;94883.28;;;23.74;100.00
8075;BME280;4080;42.676;23.372;2022-08-19T01:50:31;94874.84;;;23.75;100.00
8075;BME280;4080;42.676;23.372;2022-08-19T01:53:00;94886.13;;;24.00;100.00
8075;BME280;4080;42.676;23.372;2022-08-19T01:55:27;94889.41;;;24.13;100.00
8075;BME280;4080;42.676;23.372;2022-08-19T01:57:58;94886.25;;;24.07;100.00
8075;BME280;4080;42.676;23.372;2022-08-19T02:00:28;94888.03;;;24.00;100.00
8075;BME280;4080;42.676;23.372;2022-08-19T02:02:56;94880.06;;;24.07;100.00
8075;BME280;4080;42.676;23.372;2022-08-19T02:05:23;94888.91;;;24.27;100.00
8075;BME280;4080;42.676;23.372;2022-08-19T02:07:50;94893.09;;;24.43;100.00
8075;BME280;4080;42.676;23.372;2022-08-19T02:10:21;94890.19;;;24.52;100.00
8075;BME280;4080;42.676;23.372;2022-08-19T02:12:48;94889.94;;;24.61;100.00
8075;BME280;4080;42.676;23.372;2022-08-19T02:15:17;94893.53;;;24.68;100.00
8075;BME280;4080;42.676;23.372;2022-08-19T02:17:45;94890.56;;;24.77;100.00
8075;BME280;4080;42.676;23.372;2022-08-19T02:20:12;94890.72;;;24.84;100.00
8075;BME280;4080;42.676;23.372;2022-08-19T02:22:39;94831.63;;;24.53;100.00
8075;BME280;4080;42.676;23.372;2022-08-19T02:25:08;94897.41;;;24.94;100.00
8075;BME280;4080;42.676;23.372;2022-08-19T02:27:35;94900.09;;;24.94;100.00
8075;BME280;4080;42.676;23.372;2022-08-19T02:30:04;94862.41;;;24.74;100.00
8075;BME280;4080;42.676;23.372;2022-08-19T02:32:33;94898.50;;;24.89;100.00
8075;BME280;4080;42.676;23.372;2022-08-19T02:34:59;94899.28;;;24.90;100.00
8075;BME280;4080;42.676;23.372;2022-08-19T02:37:26;94865.34;;;24.66;100.00
8075;BME280;4080;42.676;23.372;2022-08-19T02:40:11;94895.34;;;24.84;100.00
8075;BME280;4080;42.676;23.372;2022-08-19T02:42:37;94903.91;;;24.89;100.00
8075;BME280;4080;42.676;23.372;2022-08-19T02:45:06;94904.72;;;24.93;100.00
8075;BME280;4080;42.676;23.372;2022-08-19T02:47:34;94898.25;;;24.98;100.00
8075;BME280;4080;42.676;23.372;2022-08-19T02:50:02;94909.03;;;24.98;100.00
8075;BME280;4080;42.676;23.372;2022-08-19T02:52:29;94844.97;;;24.45;100.00
8075;BME280;4080;42.676;23.372;2022-08-19T02:54:56;94909.53;;;24.58;100.00
8075;BME280;4080;42.676;23.372;2022-08-19T02:57:23;94875.31;;;24.20;100.00
8075;BME280;4080;42.676;23.372;2022-08-19T02:59:50;94911.00;;;24.32;100.00
8075;BME280;4080;42.676;23.372;2022-08-19T03:02:16;94906.38;;;24.13;100.00
8075;BME280;4080;42.676;23.372;2022-08-19T03:04:45;94910.97;;;24.13;100.00
8075;BME280;4080;42.676;23.372;2022-08-19T03:07:13;94854.06;;;23.76;100.00
8075;BME280;4080;42.676;23.372;2022-08-19T03:09:40;94906.72;;;24.12;100.00
8075;BME280;4080;42.676;23.372;2022-08-19T03:12:07;94906.09;;;24.19;100.00
8075;BME280;4080;42.676;23.372;2022-08-19T03:14:35;94901.44;;;23.96;100.00
8075;BME280;4080;42.676;23.372;2022-08-19T03:17:03;94887.59;;;23.59;100.00
8075;BME280;4080;42.676;23.372;2022-08-19T03:19:30;94897.44;;;23.71;100.00
8075;BME280;4080;42.676;23.372;2022-08-19T03:21:59;94900.13;;;23.36;100.00
8075;BME280;4080;42.676;23.372;2022-08-19T03:24:26;94891.25;;;22.84;100.00
8075;BME280;4080;42.676;23.372;2022-08-19T03:26:54;94895.06;;;22.68;100.00
8075;BME280;4080;42.676;23.372;2022-08-19T03:29:23;94896.56;;;22.81;100.00
8075;BME280;4080;42.676;23.372;2022-08-19T03:31:50;94894.53;;;22.93;100.00
8075;BME280;4080;42.676;23.372;2022-08-19T03:34:20;94866.63;;;22.98;100.00
8075;BME280;4080;42.676;23.372;2022-08-19T03:36:47;94902.06;;;23.35;100.00
8075;BME280;4080;42.676;23.372;2022-08-19T03:39:16;94897.31;;;23.48;100.00
8075;BME280;4080;42.676;23.372;2022-08-19T03:41:45;94893.47;;;23.65;100.00
8075;BME280;4080;42.676;23.372;2022-08-19T03:44:12;94905.91;;;23.89;100.00
8075;BME280;4080;42.676;23.372;2022-08-19T03:46:39;94913.00;;;23.97;100.00
8075;BME280;4080;42.676;23.372;2022-08-19T03:49:06;94913.91;;;24.04;100.00
8075;BME280;4080;42.676;23.372;2022-08-19T03:51:37;94900.06;;;24.06;100.00
8075;BME280;4080;42.676;23.372;2022-08-19T03:54:07;94923.53;;;24.25;100.00
8075;BME280;4080;42.676;23.372;2022-08-19T03:56:39;94866.91;;;24.02;100.00
8075;BME280;4080;42.676;23.372;2022-08-19T03:59:07;94882.63;;;24.19;100.00
8075;BME280;4080;42.676;23.372;2022-08-19T04:01:34;94897.88;;;24.31;100.00
8075;BME280;4080;42.676;23.372;2022-08-19T04:04:02;94930.25;;;24.54;100.00
8075;BME280;4080;42.676;23.372;2022-08-19T04:06:31;94936.91;;;24.60;100.00
8075;BME280;4080;42.676;23.372;2022-08-19T04:09:00;94914.94;;;24.58;100.00
8075;BME280;4080;42.676;23.372;2022-08-19T04:11:30;94931.94;;;24.62;100.00
8075;BME280;4080;42.676;23.372;2022-08-19T04:13:59;94928.94;;;24.67;100.00
8075;BME280;4080;42.676;23.372;2022-08-19T04:16:27;94948.16;;;24.85;100.00
8075;BME280;4080;42.676;23.372;2022-08-19T04:18:55;94920.91;;;24.70;100.00
8075;BME280;4080;42.676;23.372;2022-08-19T04:21:24;94945.56;;;24.92;100.00
8075;BME280;4080;42.676;23.372;2022-08-19T04:23:52;94941.25;;;24.87;100.00
8075;BME280;4080;42.676;23.372;2022-08-19T04:26:21;94937.84;;;24.90;100.00
8075;BME280;4080;42.676;23.372;2022-08-19T04:28:49;94943.69;;;24.96;99.82
8075;BME280;4080;42.676;23.372;2022-08-19T04:31:20;94951.88;;;24.99;99.61
8075;BME280;4080;42.676;23.372;2022-08-19T04:33:47;94950.66;;;24.97;99.88
8075;BME280;4080;42.676;23.372;2022-08-19T04:36:18;94962.38;;;25.04;99.86
8075;BME280;4080;42.676;23.372;2022-08-19T04:38:46;94958.69;;;24.93;99.50
8075;BME280;4080;42.676;23.372;2022-08-19T04:41:13;94957.94;;;24.73;100.00
8075;BME280;4080;42.676;23.372;2022-08-19T04:43:57;94948.00;;;24.77;100.00
8075;BME280;4080;42.676;23.372;2022-08-19T04:46:25;94941.66;;;24.89;100.00
8075;BME280;4080;42.676;23.372;2022-08-19T04:48:55;94939.53;;;24.98;100.00
8075;BME280;4080;42.676;23.372;2022-08-19T04:51:23;94944.97;;;25.02;99.94
8075;BME280;4080;42.676;23.372;2022-08-19T04:53:50;94943.84;;;25.03;99.73
8075;BME280;4080;42.676;23.372;2022-08-19T04:56:19;94886.16;;;24.65;99.29
8075;BME280;4080;42.676;23.372;2022-08-19T04:58:48;94942.63;;;25.00;100.00
8075;BME280;4080;42.676;23.372;2022-08-19T05:01:18;94952.47;;;25.12;100.00
8075;BME280;4080;42.676;23.372;2022-08-19T05:03:47;94960.63;;;25.16;99.69
8075;BME280;4080;42.676;23.372;2022-08-19T05:06:15;94960.78;;;25.26;99.37
8075;BME280;4080;42.676;23.372;2022-08-19T05:08:44;94953.72;;;25.41;99.66
8075;BME280;4080;42.676;23.372;2022-08-19T05:11:14;94930.22;;;25.45;98.44
8075;BME280;4080;42.676;23.372;2022-08-19T05:13:42;94959.00;;;25.87;96.55
8075;BME280;4080;42.676;23.372;2022-08-19T05:16:10;94958.81;;;26.03;95.77
8075;BME280;4080;42.676;23.372;2022-08-19T05:18:37;94955.50;;;26.16;95.03
8075;BME280;4080;42.676;23.372;2022-08-19T05:21:23;94901.28;;;26.02;92.33
8075;BME280;4080;42.676;23.372;2022-08-19T05:24:07;94908.06;;;26.22;91.32
8075;BME280;4080;42.676;23.372;2022-08-19T05:26:34;94950.56;;;26.55;91.75
8075;BME280;4080;42.676;23.372;2022-08-19T05:29:01;94960.78;;;26.73;91.77
8075;BME280;4080;42.676;23.372;2022-08-19T05:31:29;94949.63;;;26.78;90.72
8075;BME280;4080;42.676;23.372;2022-08-19T05:33:56;94931.47;;;26.78;91.10
8075;BME280;4080;42.676;23.372;2022-08-19T05:36:25;94963.13;;;27.15;89.59
8075;BME280;4080;42.676;23.372;2022-08-19T05:38:52;94964.81;;;27.30;88.35
8075;BME280;4080;42.676;23.372;2022-08-19T05:41:20;94937.66;;;27.23;87.75
8075;BME280;4080;42.676;23.372;2022-08-19T05:43:48;94972.03;;;27.63;86.99
8075;BME280;4080;42.676;23.372;2022-08-19T05:46:17;94968.25;;;27.82;85.75
8075;BME280;4080;42.676;23.372;2022-08-19T05:48:44;94964.78;;;27.85;84.50
8075;BME280;4080;42.676;23.372;2022-08-19T05:51:13;94971.00;;;27.86;84.69
8075;BME280;4080;42.676;23.372;2022-08-19T05:53:42;94962.19;;;28.06;84.18
8075;BME280;4080;42.676;23.372;2022-08-19T05:56:12;94954.59;;;28.30;83.16
8075;BME280;4080;42.676;23.372;2022-08-19T05:58:40;94974.81;;;28.50;80.73
8075;BME280;4080;42.676;23.372;2022-08-19T06:01:10;94964.38;;;28.59;80.01
8075;BME280;4080;42.676;23.372;2022-08-19T06:03:37;94960.91;;;28.73;79.13
8075;BME280;4080;42.676;23.372;2022-08-19T06:06:06;94964.06;;;28.93;79.28
8075;BME280;4080;42.676;23.372;2022-08-19T06:08:33;94973.00;;;29.08;78.62
8075;BME280;4080;42.676;23.372;2022-08-19T06:11:19;94971.06;;;29.08;78.73
8075;BME280;4080;42.676;23.372;2022-08-19T06:13:47;94979.63;;;29.10;78.46
8075;BME280;4080;42.676;23.372;2022-08-19T06:16:18;94967.19;;;29.20;78.34
8075;BME280;4080;42.676;23.372;2022-08-19T06:18:49;94983.13;;;29.43;77.76
8075;BME280;4080;42.676;23.372;2022-08-19T06:21:18;94971.88;;;29.48;76.22
8075;BME280;4080;42.676;23.372;2022-08-19T06:23:45;94982.72;;;29.65;75.72
8075;BME280;4080;42.676;23.372;2022-08-19T06:26:14;94951.66;;;29.63;73.84
8075;BME280;4080;42.676;23.372;2022-08-19T06:28:43;94985.75;;;29.96;72.89
8075;BME280;4080;42.676;23.372;2022-08-19T06:31:12;94984.63;;;30.08;73.04
8075;BME280;4080;42.676;23.372;2022-08-19T06:33:40;94964.41;;;30.05;73.37
8075;BME280;4080;42.676;23.372;2022-08-19T06:36:08;94943.81;;;30.01;72.12
8075;BME280;4080;42.676;23.372;2022-08-19T06:38:34;94984.88;;;30.42;71.96
8075;BME280;4080;42.676;23.372;2022-08-19T06:41:02;94954.59;;;30.36;71.22
8075;BME280;4080;42.676;23.372;2022-08-19T06:43:29;94974.69;;;30.60;71.11
8075;BME280;4080;42.676;23.372;2022-08-19T06:45:57;94981.69;;;30.68;70.31
8075;BME280;4080;42.676;23.372;2022-08-19T06:48:26;94987.09;;;30.72;71.16
8075;BME280;4080;42.676;23.372;2022-08-19T06:50:53;94982.81;;;30.71;70.62
8075;BME280;4080;42.676;23.372;2022-08-19T06:53:20;94987.44;;;30.81;69.82
8075;BME280;4080;42.676;23.372;2022-08-19T06:55:46;94979.19;;;30.95;69.43
8075;BME280;4080;42.676;23.372;2022-08-19T06:58:13;94985.31;;;31.10;68.28
8075;BME280;4080;42.676;23.372;2022-08-19T07:00:40;94991.88;;;31.23;68.46
8075;BME280;4080;42.676;23.372;2022-08-19T07:03:08;94990.09;;;31.47;67.76
8075;BME280;4080;42.676;23.372;2022-08-19T07:05:39;94988.03;;;31.62;66.88
8075;BME280;4080;42.676;23.372;2022-08-19T07:08:06;94963.16;;;31.56;66.33
8075;BME280;4080;42.676;23.372;2022-08-19T07:10:34;95003.44;;;31.83;64.88
8075;BME280;4080;42.676;23.372;2022-08-19T07:13:02;94990.94;;;31.89;63.98
8075;BME280;4080;42.676;23.372;2022-08-19T07:15:29;94999.72;;;32.03;64.32
8075;BME280;4080;42.676;23.372;2022-08-19T07:17:56;94993.66;;;32.26;63.83
8075;BME280;4080;42.676;23.372;2022-08-19T07:20:42;94991.16;;;32.39;63.72
8075;BME280;4080;42.676;23.372;2022-08-19T07:23:10;95003.56;;;32.47;63.51
8075;BME280;4080;42.676;23.372;2022-08-19T07:25:37;94991.69;;;32.61;59.81
8075;BME280;4080;42.676;23.372;2022-08-19T07:28:04;94998.03;;;32.54;60.11
8075;BME280;4080;42.676;23.372;2022-08-19T07:30:32;94994.44;;;32.27;60.15
8075;BME280;4080;42.676;23.372;2022-08-19T07:33:02;94996.19;;;32.06;62.23
8075;BME280;4080;42.676;23.372;2022-08-19T07:35:29;94989.19;;;32.05;62.39
8075;BME280;4080;42.676;23.372;2022-08-19T07:37:59;94994.09;;;32.21;63.12
8075;BME280;4080;42.676;23.372;2022-08-19T07:40:27;94983.19;;;32.55;62.48
8075;BME280;4080;42.676;23.372;2022-08-19T07:42:54;94983.69;;;32.77;60.20
8075;BME280;4080;42.676;23.372;2022-08-19T07:45:21;94985.09;;;32.89;59.05
8075;BME280;4080;42.676;23.372;2022-08-19T07:47:48;94990.50;;;33.19;57.83
8075;BME280;4080;42.676;23.372;2022-08-19T07:50:16;94993.06;;;33.30;57.10
8075;BME280;4080;42.676;23.372;2022-08-19T07:52:44;94989.78;;;33.42;58.07
8075;BME280;4080;42.676;23.372;2022-08-19T07:55:13;94994.06;;;33.67;58.55
8075;BME280;4080;42.676;23.372;2022-08-19T07:57:40;94994.16;;;33.86;55.71
8075;BME280;4080;42.676;23.372;2022-08-19T08:00:07;94979.19;;;33.91;56.24
8075;BME280;4080;42.676;23.372;2022-08-19T08:02:34;94988.63;;;34.10;56.00
8075;BME280;4080;42.676;23.372;2022-08-19T08:05:01;94996.56;;;34.24;54.67
8075;BME280;4080;42.676;23.372;2022-08-19T08:07:45;94992.47;;;34.36;54.25
8075;BME280;4080;42.676;23.372;2022-08-19T08:10:31;94989.75;;;34.12;53.63
8075;BME280;4080;42.676;23.372;2022-08-19T08:12:59;94988.47;;;33.97;54.59
8075;BME280;4080;42.676;23.372;2022-08-19T08:15:26;94987.50;;;34.07;54.72
8075;BME280;4080;42.676;23.372;2022-08-19T08:17:53;94982.00;;;34.31;53.59
8075;BME280;4080;42.676;23.372;2022-08-19T08:20:20;94978.31;;;34.57;52.34
8075;BME280;4080;42.676;23.372;2022-08-19T08:22:47;94970.31;;;34.66;51.68
8075;BME280;4080;42.676;23.372;2022-08-19T08:25:34;94958.34;;;34.76;50.57
8075;BME280;4080;42.676;23.372;2022-08-19T08:28:02;94971.97;;;35.16;50.80
8075;BME280;4080;42.676;23.372;2022-08-19T08:30:30;94973.91;;;35.35;49.91
8075;BME280;4080;42.676;23.372;2022-08-19T08:32:58;94963.94;;;35.41;49.74
8075;BME280;4080;42.676;23.372;2022-08-19T08:35:25;94976.13;;;35.57;48.72
8075;BME280;4080;42.676;23.372;2022-08-19T08:37:53;94970.03;;;35.49;49.55
8075;BME280;4080;42.676;23.372;2022-08-19T08:40:23;94966.16;;;35.63;48.80
8075;BME280;4080;42.676;23.372;2022-08-19T08:42:58;94976.34;;;35.78;48.57
8075;BME280;4080;42.676;23.372;2022-08-19T08:45:30;94959.88;;;35.78;47.17
8075;BME280;4080;42.676;23.372;2022-08-19T08:48:04;94961.56;;;36.05;46.30
8075;BME280;4080;42.676;23.372;2022-08-19T08:50:39;94932.84;;;35.93;43.60
8075;BME280;4080;42.676;23.372;2022-08-19T08:53:09;94965.19;;;36.31;44.30
8075;BME280;4080;42.676;23.372;2022-08-19T08:55:37;94953.66;;;36.36;44.15
8075;BME280;4080;42.676;23.372;2022-08-19T08:58:11;94951.06;;;36.45;43.71
8075;BME280;4080;42.676;23.372;2022-08-19T09:00:44;94934.56;;;36.45;44.44
8075;BME280;4080;42.676;23.372;2022-08-19T09:03:17;94950.75;;;36.68;42.19
8075;BME280;4080;42.676;23.372;2022-08-19T09:05:56;94955.00;;;36.44;40.95
8075;BME280;4080;42.676;23.372;2022-08-19T09:08:36;94953.00;;;36.32;43.67
8075;BME280;4080;42.676;23.372;2022-08-19T09:11:10;94937.06;;;36.39;44.02
8075;BME280;4080;42.676;23.372;2022-08-19T09:13:51;94943.16;;;36.73;43.16
8075;BME280;4080;42.676;23.372;2022-08-19T09:16:23;94949.47;;;36.98;42.76
8075;BME280;4080;42.676;23.372;2022-08-19T09:18:54;94943.19;;;37.23;41.25
8075;BME280;4080;42.676;23.372;2022-08-19T09:21:23;94936.94;;;37.36;40.52
8075;BME280;4080;42.676;23.372;2022-08-19T09:23:51;94923.06;;;37.39;39.78
8075;BME280;4080;42.676;23.372;2022-08-19T09:26:20;94935.78;;;37.71;38.79
8075;BME280;4080;42.676;23.372;2022-08-19T09:28:52;94940.72;;;37.76;34.67
8075;BME280;4080;42.676;23.372;2022-08-19T09:31:22;94934.06;;;37.39;33.56
8075;BME280;4080;42.676;23.372;2022-08-19T09:33:50;94922.97;;;37.17;34.02
8075;BME280;4080;42.676;23.372;2022-08-19T09:36:19;94924.06;;;37.20;34.93
8075;BME280;4080;42.676;23.372;2022-08-19T09:38:48;94933.63;;;37.15;32.77
8075;BME280;4080;42.676;23.372;2022-08-19T09:41:16;94930.44;;;37.04;34.44
8075;BME280;4080;42.676;23.372;2022-08-19T09:43:50;94932.34;;;36.82;32.53
8075;BME280;4080;42.676;23.372;2022-08-19T09:46:21;94927.47;;;36.98;30.58
8075;BME280;4080;42.676;23.372;2022-08-19T09:48:49;94907.78;;;37.13;31.77
8075;BME280;4080;42.676;23.372;2022-08-19T09:51:18;94914.81;;;37.39;31.27
8075;BME280;4080;42.676;23.372;2022-08-19T09:53:47;94921.13;;;37.74;31.19
8075;BME280;4080;42.676;23.372;2022-08-19T09:56:15;94922.56;;;38.01;28.92
8075;BME280;4080;42.676;23.372;2022-08-19T09:58:43;94910.50;;;38.07;29.58
8075;BME280;4080;42.676;23.372;2022-08-19T10:01:16;94899.94;;;38.06;29.07
8075;BME280;4080;42.676;23.372;2022-08-19T10:03:47;94914.63;;;38.25;29.13
8075;BME280;4080;42.676;23.372;2022-08-19T10:06:17;94803.78;;;37.33;27.74
8075;BME280;4080;42.676;23.372;2022-08-19T10:08:45;94891.63;;;37.62;28.93
8075;BME280;4080;42.676;23.372;2022-08-19T10:11:12;94896.66;;;37.64;28.89
8075;BME280;4080;42.676;23.372;2022-08-19T10:13:42;94900.44;;;37.57;29.14
8075;BME280;4080;42.676;23.372;2022-08-19T10:16:13;94902.47;;;37.44;30.19
8075;BME280;4080;42.676;23.372;2022-08-19T10:18:41;94889.31;;;37.60;30.66
8075;BME280;4080;42.676;23.372;2022-08-19T10:21:10;94892.63;;;37.55;29.54
8075;BME280;4080;42.676;23.372;2022-08-19T10:23:39;94897.63;;;37.48;30.29
8075;BME280;4080;42.676;23.372;2022-08-19T10:26:06;94886.81;;;37.53;30.35
8075;BME280;4080;42.676;23.372;2022-08-19T10:28:34;94892.00;;;37.51;30.36
8075;BME280;4080;42.676;23.372;2022-08-19T10:31:06;94869.81;;;37.20;29.89
8075;BME280;4080;42.676;23.372;2022-08-19T10:33:35;94888.06;;;37.40;30.89
8075;BME280;4080;42.676;23.372;2022-08-19T10:36:05;94876.19;;;37.43;30.64
8075;BME280;4080;42.676;23.372;2022-08-19T10:38:32;94874.06;;;37.47;30.53
8075;BME280;4080;42.676;23.372;2022-08-19T10:41:07;94870.16;;;37.35;30.34
8075;BME280;4080;42.676;23.372;2022-08-19T10:43:34;94869.59;;;37.27;30.29
8075;BME280;4080;42.676;23.372;2022-08-19T10:46:04;94874.97;;;37.31;30.44
8075;BME280;4080;42.676;23.372;2022-08-19T10:48:31;94874.25;;;37.52;30.85
8075;BME280;4080;42.676;23.372;2022-08-19T10:51:00;94859.34;;;37.63;30.34
8075;BME280;4080;42.676;23.372;2022-08-19T10:53:44;94861.53;;;37.80;29.87
8075;BME280;4080;42.676;23.372;2022-08-19T10:56:11;94862.78;;;37.88;29.80
8075;BME280;4080;42.676;23.372;2022-08-19T10:58:55;94863.19;;;37.65;30.23
8075;BME280;4080;42.676;23.372;2022-08-19T11:01:23;94868.56;;;37.47;30.29
8075;BME280;4080;42.676;23.372;2022-08-19T11:03:50;94867.66;;;37.50;30.95
8075;BME280;4080;42.676;23.372;2022-08-19T11:06:19;94856.41;;;37.57;30.13
8075;BME280;4080;42.676;23.372;2022-08-19T11:08:46;94855.69;;;37.78;31.13
8075;BME280;4080;42.676;23.372;2022-08-19T11:11:13;94861.97;;;38.01;30.29
8075;BME280;4080;42.676;23.372;2022-08-19T11:13:41;94860.94;;;38.07;31.16
8075;BME280;4080;42.676;23.372;2022-08-19T11:16:13;94792.53;;;37.75;31.16
8075;BME280;4080;42.676;23.372;2022-08-19T11:18:42;94852.94;;;38.22;31.05
8075;BME280;4080;42.676;23.372;2022-08-19T11:21:13;94768.84;;;37.77;31.71
8075;BME280;4080;42.676;23.372;2022-08-19T11:23:43;94842.75;;;38.32;31.15
8075;BME280;4080;42.676;23.372;2022-08-19T11:26:10;94866.56;;;38.57;30.93
8075;BME280;4080;42.676;23.372;2022-08-19T11:28:37;94852.44;;;38.45;30.68
8075;BME280;4080;42.676;23.372;2022-08-19T11:31:09;94840.31;;;38.12;29.31
8075;BME280;4080;42.676;23.372;2022-08-19T11:33:36;94849.25;;;37.72;30.93
8075;BME280;4080;42.676;23.372;2022-08-19T11:36:04;94802.72;;;37.18;30.29
8075;BME280;4080;42.676;23.372;2022-08-19T11:38:31;94839.03;;;37.25;31.59
8075;BME280;4080;42.676;23.372;2022-08-19T11:41:01;94831.44;;;37.17;31.13
8075;BME280;4080;42.676;23.372;2022-08-19T11:43:29;94814.63;;;37.02;31.43
8075;BME280;4080;42.676;23.372;2022-08-19T11:45:56;94823.88;;;36.95;32.19
8075;BME280;4080;42.676;23.372;2022-08-19T11:48:30;94833.81;;;36.80;32.00
8075;BME280;4080;42.676;23.372;2022-08-19T11:50:57;94829.28;;;36.61;32.31
8075;BME280;4080;42.676;23.372;2022-08-19T11:53:24;94816.31;;;36.61;33.84
8075;BME280;4080;42.676;23.372;2022-08-19T11:55:53;94804.44;;;36.64;33.08
8075;BME280;4080;42.676;23.372;2022-08-19T11:58:22;94825.88;;;36.95;32.36
8075;BME280;4080;42.676;23.372;2022-08-19T12:00:50;94799.19;;;36.83;33.11
8075;BME280;4080;42.676;23.372;2022-08-19T12:03:17;94811.88;;;37.02;32.91
8075;BME280;4080;42.676;23.372;2022-08-19T12:05:45;94807.25;;;37.12;33.74
8075;BME280;4080;42.676;23.372;2022-08-19T12:08:12;94809.91;;;37.03;32.99
8075;BME280;4080;42.676;23.372;2022-08-19T12:10:40;94790.91;;;36.70;33.14
8075;BME280;4080;42.676;23.372;2022-08-19T12:13:08;94801.50;;;36.46;33.95
8075;BME280;4080;42.676;23.372;2022-08-19T12:15:37;94798.19;;;36.38;33.63
8075;BME280;4080;42.676;23.372;2022-08-19T12:18:06;94788.72;;;36.27;34.29
8075;BME280;4080;42.676;23.372;2022-08-19T12:20:34;94792.03;;;36.34;34.57
8075;BME280;4080;42.676;23.372;2022-08-19T12:23:02;94786.00;;;36.39;34.78
8075;BME280;4080;42.676;23.372;2022-08-19T12:25:29;94784.34;;;36.42;34.31
8075;BME280;4080;42.676;23.372;2022-08-19T12:27:57;94776.47;;;36.44;34.91
8075;BME280;4080;42.676;23.372;2022-08-19T12:30:24;94776.53;;;36.28;34.68
8075;BME280;4080;42.676;23.372;2022-08-19T12:32:52;94770.19;;;36.31;35.12
8075;BME280;4080;42.676;23.372;2022-08-19T12:35:19;94780.84;;;36.42;34.73
8075;BME280;4080;42.676;23.372;2022-08-19T12:37:47;94764.47;;;36.51;35.24
8075;BME280;4080;42.676;23.372;2022-08-19T12:40:16;94776.19;;;36.64;33.89
8075;BME280;4080;42.676;23.372;2022-08-19T12:42:43;94772.84;;;36.47;34.32
8075;BME280;4080;42.676;23.372;2022-08-19T12:45:12;94726.44;;;36.24;34.73
8075;BME280;4080;42.676;23.372;2022-08-19T12:47:39;94753.44;;;36.63;34.60
8075;BME280;4080;42.676;23.372;2022-08-19T12:50:08;94759.81;;;36.73;35.29
8075;BME280;4080;42.676;23.372;2022-08-19T12:52:36;94759.06;;;36.85;34.57
8075;BME280;4080;42.676;23.372;2022-08-19T12:55:06;94746.06;;;36.86;34.60
8075;BME280;4080;42.676;23.372;2022-08-19T12:57:33;94766.34;;;37.01;34.29
8075;BME280;4080;42.676;23.372;2022-08-19T13:00:04;94727.94;;;36.76;33.29
8075;BME280;4080;42.676;23.372;2022-08-19T13:02:33;94757.28;;;36.91;33.51
8075;BME280;4080;42.676;23.372;2022-08-19T13:05:00;94758.16;;;36.88;33.77
8075;BME280;4080;42.676;23.372;2022-08-19T13:07:28;94748.19;;;36.82;33.32
8075;BME280;4080;42.676;23.372;2022-08-19T13:09:56;94761.00;;;36.72;33.41
8075;BME280;4080;42.676;23.372;2022-08-19T13:12:23;94743.16;;;36.55;33.35
8075;BME280;4080;42.676;23.372;2022-08-19T13:14:52;94741.81;;;36.59;34.00
8075;BME280;4080;42.676;23.372;2022-08-19T13:17:19;94730.59;;;36.66;34.60